createdAt,value
2023-04-08T00:03:02.571Z,5.88
2023-04-08T00:08:06.528Z,5.92
2023-04-08T00:13:09.742Z,5.95
2023-04-08T00:18:16.811Z,5.93
2023-04-08T00:23:21.491Z,5.93
2023-04-08T00:28:24.397Z,5.97
2023-04-08T00:33:27.197Z,5.96
2023-04-08T00:38:30.513Z,6.04
2023-04-08T00:43:33.370Z,6.08
2023-04-08T00:48:36.340Z,6.14
2023-04-08T00:53:39.190Z,6.14
2023-04-08T00:58:42.008Z,6.10
2023-04-08T01:04:02.333Z,6.01
2023-04-08T01:09:06.180Z,5.86
2023-04-08T01:14:12.059Z,5.75
2023-04-08T01:19:27.919Z,5.64
2023-04-08T01:24:36.602Z,5.61
2023-04-08T01:29:40.181Z,5.62
2023-04-08T01:34:44.414Z,5.60
2023-04-08T01:39:49.347Z,5.56
2023-04-08T01:44:55.572Z,5.44
2023-04-08T01:49:59.918Z,5.36
2023-04-08T01:55:02.906Z,5.25
2023-04-08T02:00:10.398Z,5.17
2023-04-08T02:05:14.220Z,5.14
2023-04-08T02:10:16.952Z,5.13
2023-04-08T02:15:19.930Z,5.20
2023-04-08T02:20:33.409Z,5.34
2023-04-08T02:25:40.091Z,5.39
2023-04-08T02:30:48.330Z,5.37
2023-04-08T02:35:56.096Z,5.36
2023-04-08T02:40:59.113Z,5.29
2023-04-08T02:46:04.082Z,5.27
2023-04-08T02:51:07.205Z,5.25
2023-04-08T02:56:12.855Z,5.22
2023-04-08T03:01:15.719Z,5.22
2023-04-08T03:06:18.701Z,5.19
2023-04-08T03:11:21.621Z,5.14
2023-04-08T03:16:24.560Z,5.14
2023-04-08T03:21:27.486Z,5.19
2023-04-08T03:26:30.409Z,5.25
2023-04-08T03:31:33.632Z,5.27
2023-04-08T03:36:36.477Z,5.21
2023-04-08T03:41:39.400Z,5.18
2023-04-08T03:46:42.309Z,5.15
2023-04-08T03:51:45.136Z,5.14
2023-04-08T03:56:50.588Z,5.15
2023-04-08T04:01:53.745Z,5.18
2023-04-08T04:06:56.714Z,5.21
2023-04-08T04:11:59.557Z,5.22
2023-04-08T04:17:02.379Z,5.21
2023-04-08T04:22:05.193Z,5.19
2023-04-08T04:27:08.020Z,5.12
2023-04-08T04:32:10.854Z,5.18
2023-04-08T04:37:14.168Z,5.49
2023-04-08T04:42:17.020Z,5.80
2023-04-08T04:47:20.053Z,6.00
2023-04-08T04:52:22.871Z,6.15
2023-04-08T04:57:25.689Z,6.26
2023-04-08T05:02:28.597Z,6.37
2023-04-08T05:07:31.608Z,6.28
2023-04-08T05:12:34.431Z,6.07
2023-04-08T05:17:37.368Z,5.89
2023-04-08T05:22:40.419Z,5.76
2023-04-08T05:27:43.239Z,5.71
2023-04-08T05:32:46.098Z,5.68
2023-04-08T05:37:48.905Z,5.66
2023-04-08T05:42:51.745Z,5.60
2023-04-08T05:47:54.666Z,5.59
2023-04-08T05:52:57.575Z,5.76
2023-04-08T05:58:00.381Z,6.00
2023-04-08T06:03:03.365Z,6.19
2023-04-08T06:08:06.877Z,6.33
2023-04-08T06:13:09.674Z,6.40
2023-04-08T06:18:12.465Z,6.43
2023-04-08T06:23:15.685Z,6.58
2023-04-08T06:28:18.524Z,6.80
2023-04-08T06:33:21.339Z,6.97
2023-04-08T06:38:24.187Z,7.08
2023-04-08T06:43:27.642Z,7.19
2023-04-08T06:48:31.013Z,7.34
2023-04-08T06:53:33.904Z,7.45
2023-04-08T06:58:36.701Z,7.57
2023-04-08T07:03:39.670Z,7.61
2023-04-08T07:08:42.639Z,7.60
2023-04-08T07:13:45.441Z,7.61
2023-04-08T07:18:48.429Z,7.67
2023-04-08T07:23:51.370Z,7.71
2023-04-08T07:28:54.144Z,7.78
2023-04-08T07:33:56.974Z,7.86
2023-04-08T07:38:59.764Z,7.98
2023-04-08T07:44:02.676Z,7.98
2023-04-08T07:49:05.713Z,8.02
2023-04-08T07:54:08.557Z,8.15
2023-04-08T07:59:12.298Z,8.29
2023-04-08T08:04:15.225Z,8.44
2023-04-08T08:09:18.139Z,8.52
2023-04-08T08:14:21.851Z,8.55
2023-04-08T08:19:24.704Z,8.56
2023-04-08T08:24:27.597Z,8.64
2023-04-08T08:29:30.512Z,8.79
2023-04-08T08:34:33.645Z,8.92
2023-04-08T08:39:36.749Z,8.97
2023-04-08T08:44:39.570Z,9.00
2023-04-08T08:49:43.016Z,9.06
2023-04-08T08:54:46.458Z,9.10
2023-04-08T08:59:49.636Z,9.19
2023-04-08T09:05:05.716Z,9.29
2023-04-08T09:10:10.101Z,9.32
2023-04-08T09:15:12.895Z,9.40
2023-04-08T09:20:15.850Z,9.48
2023-04-08T09:25:32.661Z,9.57
2023-04-08T09:30:36.908Z,9.72
2023-04-08T09:35:39.942Z,9.82
2023-04-08T09:40:43.743Z,9.89
2023-04-08T09:45:47.563Z,9.96
2023-04-08T09:50:57.066Z,10.06
2023-04-08T09:56:02.321Z,10.10
2023-04-08T10:01:07.845Z,10.12
2023-04-08T10:06:12.112Z,10.22
2023-04-08T10:11:18.626Z,10.32
2023-04-08T10:16:27.507Z,10.42
2023-04-08T10:21:48.093Z,10.58
2023-04-08T10:26:51.168Z,10.75
2023-04-08T10:31:54.150Z,10.93
2023-04-08T10:36:59.515Z,11.08
2023-04-08T10:42:02.761Z,11.18
2023-04-08T10:47:05.726Z,11.23
2023-04-08T10:52:09.435Z,11.33
2023-04-08T10:57:12.478Z,11.35
2023-04-08T11:02:16.672Z,11.30
2023-04-08T11:07:21.296Z,11.22
2023-04-08T11:12:24.176Z,11.29
2023-04-08T11:17:27.240Z,11.44
2023-04-08T11:22:31.072Z,11.40
2023-04-08T11:27:36.019Z,11.33
2023-04-08T11:32:40.047Z,11.30
2023-04-08T11:37:42.962Z,11.29
2023-04-08T11:42:47.039Z,11.33
2023-04-08T11:47:50.205Z,11.31
2023-04-08T11:52:54.188Z,11.26
2023-04-08T11:58:02.081Z,11.20
2023-04-08T12:03:06.038Z,11.19
2023-04-08T12:08:08.885Z,11.13
2023-04-08T12:13:11.703Z,11.03
2023-04-08T12:18:14.525Z,11.03
2023-04-08T12:23:17.338Z,11.20
2023-04-08T12:28:20.434Z,11.30
2023-04-08T12:33:23.297Z,11.30
2023-04-08T12:38:27.162Z,11.36
2023-04-08T12:43:30.015Z,11.48
2023-04-08T12:48:33.261Z,11.51
2023-04-08T12:53:36.063Z,11.53
2023-04-08T12:58:38.851Z,11.61
2023-04-08T13:03:44.369Z,11.71
2023-04-08T13:08:49.122Z,11.82
2023-04-08T13:13:52.322Z,11.84
2023-04-08T13:18:55.100Z,11.88
2023-04-08T13:23:57.959Z,11.91
2023-04-08T13:29:01.366Z,11.99
2023-04-08T13:34:04.308Z,12.06
2023-04-08T13:39:07.144Z,12.11
2023-04-08T13:44:10.497Z,12.10
2023-04-08T13:49:13.734Z,12.11
2023-04-08T13:54:16.521Z,12.16
2023-04-08T13:59:19.351Z,12.13
2023-04-08T14:04:22.670Z,12.12
2023-04-08T14:09:25.702Z,12.10
2023-04-08T14:14:28.614Z,12.06
2023-04-08T14:19:32.202Z,12.04
2023-04-08T14:24:35.562Z,12.01
2023-04-08T14:29:38.438Z,12.00
2023-04-08T14:34:41.224Z,11.97
2023-04-08T14:39:44.810Z,11.98
2023-04-08T14:44:47.889Z,11.92
2023-04-08T14:49:51.893Z,11.92
2023-04-08T14:54:54.897Z,11.96
2023-04-08T14:59:57.746Z,12.01
2023-04-08T15:05:00.560Z,12.02
2023-04-08T15:10:03.433Z,12.01
2023-04-08T15:15:07.253Z,12.00
2023-04-08T15:20:10.955Z,11.93
2023-04-08T15:25:13.896Z,11.80
2023-04-08T15:30:17.235Z,11.69
2023-04-08T15:35:20.094Z,11.60
2023-04-08T15:40:23.101Z,11.49
2023-04-08T15:45:26.012Z,11.42
2023-04-08T15:50:30.259Z,11.35
2023-04-08T15:55:40.005Z,11.27
2023-04-08T16:00:43.012Z,11.20
2023-04-08T16:05:45.962Z,11.16
2023-04-08T16:10:48.794Z,11.16
2023-04-08T16:15:51.986Z,11.15
2023-04-08T16:20:55.866Z,11.14
2023-04-08T16:25:58.590Z,11.12
2023-04-08T16:31:01.898Z,11.11
2023-04-08T16:36:04.936Z,11.09
2023-04-08T16:41:10.068Z,11.06
2023-04-08T16:46:16.816Z,11.04
2023-04-08T16:51:19.647Z,11.02
2023-04-08T16:56:22.486Z,10.99
2023-04-08T17:01:27.169Z,10.96
2023-04-08T17:06:34.634Z,10.91
2023-04-08T17:11:37.431Z,10.85
2023-04-08T17:16:40.315Z,10.79
2023-04-08T17:21:43.176Z,10.73
2023-04-08T17:26:46.428Z,10.66
2023-04-08T17:31:49.737Z,10.61
2023-04-08T17:36:52.661Z,10.58
2023-04-08T17:41:57.083Z,10.55
2023-04-08T17:46:59.943Z,10.52
2023-04-08T17:52:06.140Z,10.49
2023-04-08T17:57:09.326Z,10.46
2023-04-08T18:02:12.258Z,10.43
2023-04-08T18:07:15.403Z,10.40
2023-04-08T18:12:18.625Z,10.36
2023-04-08T18:17:21.467Z,10.31
2023-04-08T18:22:24.305Z,10.28
2023-04-08T18:27:27.135Z,10.24
2023-04-08T18:32:29.985Z,10.21
2023-04-08T18:37:34.607Z,10.18
2023-04-08T18:42:37.432Z,10.16
2023-04-08T18:47:40.546Z,10.13
2023-04-08T18:52:43.731Z,10.11
2023-04-08T18:57:46.550Z,10.09
2023-04-08T19:02:49.551Z,10.08
2023-04-08T19:07:53.262Z,10.11
2023-04-08T19:12:56.160Z,10.18
2023-04-08T19:17:59.414Z,10.22
2023-04-08T19:23:02.294Z,10.21
2023-04-08T19:28:09.295Z,10.18
2023-04-08T19:33:12.370Z,10.11
2023-04-08T19:38:15.207Z,10.07
2023-04-08T19:43:18.037Z,10.04
2023-04-08T19:48:21.157Z,9.99
2023-04-08T19:53:24.010Z,9.94
2023-04-08T19:58:27.288Z,9.89
2023-04-08T20:03:30.252Z,9.84
2023-04-08T20:08:34.638Z,9.78
2023-04-08T20:13:37.626Z,9.74
2023-04-08T20:18:40.577Z,9.74
2023-04-08T20:23:46.302Z,9.77
2023-04-08T20:28:49.627Z,9.79
2023-04-08T20:33:53.575Z,9.76
2023-04-08T20:38:56.701Z,9.71
2023-04-08T20:43:59.502Z,9.70
2023-04-08T20:49:03.810Z,9.70
2023-04-08T20:54:06.738Z,9.67
2023-04-08T20:59:09.651Z,9.64
2023-04-08T21:04:12.481Z,9.62
2023-04-08T21:09:15.776Z,9.58
2023-04-08T21:14:18.593Z,9.54
2023-04-08T21:19:21.375Z,9.50
2023-04-08T21:24:24.149Z,9.52
2023-04-08T21:29:26.982Z,9.58
2023-04-08T21:34:29.838Z,9.61
2023-04-08T21:39:32.640Z,9.62
2023-04-08T21:44:35.581Z,9.61
2023-04-08T21:49:38.469Z,9.56
2023-04-08T21:54:41.288Z,9.48
2023-04-08T21:59:44.900Z,9.40
2023-04-08T22:04:48.260Z,9.35
2023-04-08T22:09:51.198Z,9.31
2023-04-08T22:14:54.330Z,9.27
2023-04-08T22:19:57.402Z,9.23
2023-04-08T22:25:00.371Z,9.22
2023-04-08T22:30:03.557Z,9.26
2023-04-08T22:35:06.908Z,9.32
2023-04-08T22:40:10.089Z,9.35
2023-04-08T22:45:12.906Z,9.38
2023-04-08T22:50:19.031Z,9.36
2023-04-08T22:55:21.899Z,9.34
2023-04-08T23:00:24.712Z,9.35
2023-04-08T23:05:27.562Z,9.32
2023-04-08T23:10:30.363Z,9.28
2023-04-08T23:15:33.234Z,9.22
2023-04-08T23:20:36.166Z,9.17
2023-04-08T23:25:38.999Z,9.16
2023-04-08T23:30:42.516Z,9.18
2023-04-08T23:35:45.481Z,9.24
2023-04-08T23:40:48.341Z,9.26
2023-04-08T23:45:51.154Z,9.24
2023-04-08T23:50:55.405Z,9.20
2023-04-08T23:56:06.691Z,9.15
